• Join FlightAware (Why Join?)
  • Login
  • US Flag 
02:38PM EDT


 

Airport Tracker/Info


-or-


 

Live Flight TrackerFlight Track Log ✈ N6319G ✈ 04-Sep-2013 ✈ KDBQ - KDBQ

Flight Track Log - Related Links

Times and Time Zones

All times are in EDT time to prevent confusion due to time zone crossing. See the N6319G flight status page for this flight to view local times or setup timezone preferences in your user account.

Time Position Orientation Groundspeed Altitude Reporting Facility
EDT Latitude Longitude Course Direction KTS MPH feet Rate Location/Type
05:23PM 42.3608 -90.6989 North 81 93 2,200  Level Chicago Center
05:24PM 42.3383 -90.6942 171° South 81 93 2,700 480 Climbing Chicago Center
05:25PM 42.3153 -90.6903 173° South 82 94 3,200 480 Climbing Chicago Center
05:26PM 42.2886 -90.6864 174° South 82 94 3,800 480 Climbing Chicago Center
05:27PM 42.2664 -90.6803 168° South 81 93 4,200 420 Climbing Chicago Center
05:29PM 42.4020 -90.7095 North  Level Estimated
05:29PM 42.2425 -90.6742 169° South 84 97 4,700  Level Chicago Center
05:30PM 42.2175 -90.6686 171° South 87 100 5,000 120 Climbing Chicago Center
05:31PM 42.1800 -90.6606 171° South 100 115 5,000  Level Chicago Center
05:32PM 42.1458 -90.6511 168° South 114 131 5,000  Level Chicago Center
05:33PM 42.1133 -90.6328 157° South 122 140 5,000  Level Chicago Center
05:34PM 42.0831 -90.6125 154° Southeast 124 143 5,000  Level Chicago Center
05:35PM 42.0533 -90.5947 156° South 121 139 5,000  Level Chicago Center
05:36PM 42.0147 -90.5728 157° South 125 144 5,000  Level Chicago Center
05:37PM 41.9825 -90.5561 159° South 124 143 5,000  Level Chicago Center
05:38PM 41.9519 -90.5350 153° Southeast 125 144 5,000  Level Chicago Center
05:39PM 41.9203 -90.5150 155° Southeast 126 145 5,000  Level Chicago Center
05:40PM 41.8897 -90.4917 150° Southeast 127 146 5,000  Level Chicago Center
05:41PM 41.8547 -90.4692 154° Southeast 122 140 5,000  Level Chicago Center
05:42PM 41.8231 -90.4536 160° South 120 138 5,000  Level Chicago Center
05:43PM 41.7922 -90.4325 153° Southeast 122 140 5,000  Level Chicago Center
05:44PM 41.7617 -90.4150 157° South 120 138 5,000  Level Chicago Center
05:45PM 41.7319 -90.3989 158° South 115 132 5,000 -240 Level Chicago Center
05:46PM 41.7003 -90.3778 154° Southeast 125 144 4,600 -480 Descending Chicago Center
05:47PM 41.6611 -90.3550 157° South 128 147 4,100 -480 Descending Chicago Center
05:48PM 41.6281 -90.3392 160° South 127 146 3,700 -420 Descending Chicago Center
05:49PM 41.5961 -90.3214 157° South 125 144 3,300 -360 Descending Chicago Center
05:50PM 41.5650 -90.3033 157° South 124 143 3,000 -180 Descending Chicago Center
05:51PM 41.5361 -90.2861 156° South 120 138 3,000  Level Chicago Center
05:52PM 41.5081 -90.2689 155° Southeast 115 132 3,000  Level Chicago Center
05:53PM 41.4725 -90.2578 167° South 111 128 3,000 -120 Level Chicago Center
05:54PM 41.4558 -90.2883 234° Southwest 105 121 2,800 -300 Descending Chicago Center
05:55PM 41.4406 -90.3194 237° Southwest 103 119 2,400 -240 Descending Chicago Center
05:56PM 41.4467 -90.3517 284° West 95 109 2,400 -180 Level Chicago Center
05:57PM 41.4472 -90.3878 271° West 94 108 2,100 -360 Descending Chicago Center
05:59PM 41.4483 -90.4183 273° West 91 105 1,700  Descending Chicago Center
06:01PM 41.5414 -90.4505 345° North  Level FlightAware Approximate
06:04PM 41.4753 -90.5514 345° North 79 91 2,300  Level Chicago Center
06:05PM 41.4972 -90.5581 347° North 81 93 2,900 600 Climbing Chicago Center
06:06PM 41.5206 -90.5639 349° North 76 87 3,600 660 Climbing Chicago Center
06:07PM 41.5422 -90.5678 352° North 76 87 4,300 540 Climbing Chicago Center
06:08PM 41.8696 -90.5650 345° North  Level FlightAware Approximate
06:08PM 41.5631 -90.5675 North 75 86 4,800  Level Chicago Center
06:09PM 41.9072 -90.5782 345° North  Level FlightAware Approximate
06:09PM 41.5842 -90.5694 356° North 75 86 5,200  Level Chicago Center
06:10PM 41.6050 -90.5728 353° North 76 87 5,600 360 Climbing Chicago Center
06:11PM 41.6250 -90.5792 347° North 76 87 6,000 240 Climbing Chicago Center
06:12PM 41.6569 -90.5842 353° North 92 106 6,100  Climbing Chicago Center
06:13PM 41.6872 -90.5886 354° North 105 121 6,100  Level Chicago Center
06:14PM 41.7158 -90.5947 351° North 106 122 6,100  Level Chicago Center
06:15PM 41.7461 -90.5986 355° North 107 123 6,100  Level Chicago Center
06:16PM 41.7758 -90.6033 353° North 108 124 6,100  Level Chicago Center
06:17PM 41.8069 -90.6089 352° North 106 122 6,100  Level Chicago Center
06:18PM 41.8364 -90.6136 353° North 106 122 6,100 -60 Level Chicago Center
06:19PM 41.8714 -90.6192 353° North 107 123 6,000 -60 Descending Chicago Center
06:20PM 41.9006 -90.6108 12° North 106 122 6,000  Level Chicago Center
06:22PM 41.9303 -90.6025 12° North 108 124 6,000  Level Chicago Center
06:23PM 41.9603 -90.5956 10° North 110 127 6,000 -120 Level Chicago Center
06:24PM 41.9908 -90.5886 10° North 112 129 5,800 -300 Descending Chicago Center
06:25PM 42.0292 -90.5803 North 114 131 5,400 -420 Descending Chicago Center
06:26PM 42.0606 -90.5719 11° North 116 133 5,000 -480 Descending Chicago Center
06:27PM 42.0897 -90.5667 North 112 129 4,500 -480 Descending Chicago Center
06:28PM 42.1222 -90.5581 11° North 115 132 4,100 -420 Descending Chicago Center
06:29PM 42.1564 -90.5497 10° North 119 137 3,700 -480 Descending Chicago Center
06:30PM 42.1967 -90.5400 10° North 122 140 3,200 -360 Descending Chicago Center
06:31PM 42.2281 -90.5325 10° North 121 139 3,000 -120 Descending Chicago Center
06:32PM 42.2586 -90.5253 10° North 118 136 3,000 -60 Level Chicago Center
06:33PM 42.2800 -90.5428 329° Northwest 113 130 2,900 -240 Descending Chicago Center
06:34PM 42.3047 -90.5714 319° Northwest 102 117 2,600 -120 Descending Chicago Center
06:35PM 42.3211 -90.5956 313° West 95 109 2,700  Climbing Chicago Center
06:36PM 42.3392 -90.6203 315° West 93 107 2,600 -240 Descending Chicago Center
06:37PM 42.3572 -90.6444 315° West 92 106 2,300 -540 Descending Chicago Center
06:38PM 42.3761 -90.6675 318° Northwest 92 106 1,600 -360 Descending Chicago Center
06:39PM 42.4003 -90.6858 331° Northwest 90 104 1,600 -60 Level Chicago Center
06:40PM 42.4228 -90.6936 346° North 89 102 1,500 -240 Descending Chicago Center
06:41PM 42.4089 -90.7189 233° Southwest 88 101 1,200 -300 Descending Chicago Center